Time;durP1;ratioP1;P1;durP2;ratioP2;P2;SDS_P1;SDS_P2;PMS_P1;PMS_P2;Temp;Humidity;BMP_temperature;BMP_pressure;BME280_temperature;BME280_humidity;BME280_pressure;Samples;Min_cycle;Max_cycle;Signal;HPM_P1;HPM_P2
2023/03/28 00:00:53;;;;;;;8.30;1.42;;;;;;;3.79;100.00;102588.59;5090886;28;20505;-48
2023/03/28 00:03:21;;;;;;;12.15;1.48;;;;;;;3.73;100.00;102589.81;5082526;28;20025;-47
2023/03/28 00:05:47;;;;;;;5.28;1.05;;;;;;;3.66;100.00;102593.81;5076594;28;20118;-45
2023/03/28 00:08:14;;;;;;;6.45;1.17;;;;;;;3.61;100.00;102584.41;5066299;28;20396;-47
2023/03/28 00:10:39;;;;;;;5.90;1.00;;;;;;;3.56;100.00;102594.47;5058311;28;20033;-48
2023/03/28 00:13:04;;;;;;;5.05;0.90;;;;;;;3.54;100.00;102597.22;5071013;28;20074;-47
2023/03/28 00:15:30;;;;;;;4.25;1.33;;;;;;;3.50;100.00;102588.56;5053849;28;20408;-50
2023/03/28 00:17:58;;;;;;;8.63;1.40;;;;;;;3.48;100.00;102594.94;5056050;28;20032;-47
2023/03/28 00:20:24;;;;;;;;;;;;;;;3.49;100.00;102604.63;5078919;28;20044;-46
2023/03/28 00:22:49;;;;;;;7.72;1.65;;;;;;;3.44;100.00;102596.06;5070558;28;19915;-48
2023/03/28 00:25:14;;;;;;;7.65;1.20;;;;;;;3.38;100.00;102605.28;5070720;28;20024;-45
2023/03/28 00:27:40;;;;;;;5.90;1.23;;;;;;;3.36;100.00;102601.00;5069381;28;20036;-48
2023/03/28 00:30:06;;;;;;;5.15;1.38;;;;;;;3.35;100.00;102597.47;5072206;28;20040;-48
2023/03/28 00:32:32;;;;;;;12.30;1.50;;;;;;;3.32;100.00;102595.00;5090517;28;20093;-48
2023/03/28 00:34:57;;;;;;;6.97;1.58;;;;;;;3.27;100.00;102597.94;5090518;28;20036;-48
2023/03/28 00:37:23;;;;;;;9.77;1.50;;;;;;;3.24;100.00;102600.78;5070523;28;20089;-50
2023/03/28 00:39:52;;;;;;;9.30;1.45;;;;;;;3.23;100.00;102595.53;5070250;28;20055;-47
2023/03/28 00:42:20;;;;;;;8.40;2.72;;;;;;;3.23;100.00;102601.72;5090629;28;20411;-49
2023/03/28 00:44:51;;;;;;;7.25;1.35;;;;;;;3.20;100.00;102596.56;5090870;28;20107;-50
2023/03/28 00:47:37;;;;;;;9.43;1.40;;;;;;;3.18;100.00;102598.47;5090829;28;20101;-47
2023/03/28 00:50:06;;;;;;;7.13;1.67;;;;;;;3.15;100.00;102587.16;5090189;28;20082;-46
2023/03/28 00:52:38;;;;;;;5.35;1.15;;;;;;;3.11;100.00;102591.81;5091171;28;20028;-48
2023/03/28 00:55:07;;;;;;;10.45;1.63;;;;;;;3.07;100.00;102584.94;5075583;28;20482;-47
2023/03/28 00:57:33;;;;;;;10.48;1.77;;;;;;;2.99;100.00;102589.88;5067995;28;20020;-48
2023/03/28 00:59:59;;;;;;;5.75;1.40;;;;;;;2.95;100.00;102580.34;5068816;28;20043;-49
2023/03/28 01:02:24;;;;;;;13.90;1.67;;;;;;;2.92;100.00;102585.84;5068465;28;20028;-48
2023/03/28 01:05:00;;;;;;;8.77;1.52;;;;;;;2.89;100.00;102586.03;5069278;28;20388;-46
2023/03/28 01:07:30;;;;;;;6.00;1.40;;;;;;;2.91;100.00;102589.47;5069045;28;20020;-47
2023/03/28 01:09:55;;;;;;;5.72;1.58;;;;;;;2.88;100.00;102579.00;5050882;28;20456;-50
2023/03/28 01:12:21;;;;;;;10.73;2.00;;;;;;;2.84;100.00;102583.63;5072711;28;20035;-47
2023/03/28 01:14:47;;;;;;;6.43;1.20;;;;;;;2.80;100.00;102579.44;5079321;28;20013;-48
2023/03/28 01:17:14;;;;;;;4.78;1.30;;;;;;;2.75;100.00;102571.72;5069077;28;20028;-48
2023/03/28 01:20:17;;;;;;;8.57;1.60;;;;;;;2.72;100.00;102574.56;5077557;28;20028;-48
2023/03/28 01:23:02;;;;;;;7.72;1.17;;;;;;;2.65;100.00;102570.53;5066334;28;20029;-49
2023/03/28 01:26:17;;;;;;;8.77;1.40;;;;;;;2.64;100.00;102571.50;5067565;28;20035;-47
2023/03/28 01:29:04;;;;;;;6.85;1.00;;;;;;;2.59;100.00;102570.91;4989214;28;20551;-49
2023/03/28 01:31:35;;;;;;;6.45;1.27;;;;;;;2.53;100.00;102565.94;5068798;28;20081;-47
2023/03/28 01:34:24;;;;;;;5.45;1.15;;;;;;;2.50;100.00;102574.94;5067764;28;20029;-50
2023/03/28 01:37:02;;;;;;;3.67;1.00;;;;;;;2.47;100.00;102574.25;5068029;28;20046;-49
2023/03/28 01:39:45;;;;;;;9.27;1.30;;;;;;;2.46;100.00;102572.53;5068137;28;20032;-48
2023/03/28 01:42:20;;;;;;;7.45;1.27;;;;;;;2.41;100.00;102571.00;5080604;28;20073;-48
2023/03/28 01:45:24;;;;;;;5.07;1.38;;;;;;;2.37;100.00;102574.78;5070182;28;20048;-48
2023/03/28 01:48:05;;;;;;;4.35;0.93;;;;;;;2.32;100.00;102568.00;5054321;28;20147;-47
2023/03/28 01:50:40;;;;;;;4.05;1.00;;;;;;;2.31;100.00;102575.09;5067874;28;20036;-47
2023/03/28 01:53:15;;;;;;;9.57;1.15;;;;;;;2.35;100.00;102575.81;5064429;28;20424;-50
2023/03/28 01:56:10;;;;;;;7.28;1.10;;;;;;;2.32;100.00;102578.63;5067996;28;20029;-48
2023/03/28 01:59:00;;;;;;;10.48;1.85;;;;;;;2.33;100.00;102583.00;5074149;28;20036;-48
2023/03/28 02:01:52;;;;;;;8.45;1.23;;;;;;;2.35;100.00;102574.00;5072325;28;20480;-50
2023/03/28 02:04:19;;;;;;;11.25;1.30;;;;;;;2.37;100.00;102569.47;5073447;28;20597;-49
2023/03/28 02:06:46;;;;;;;8.07;1.75;;;;;;;2.38;100.00;102575.63;5072493;28;20103;-47
2023/03/28 02:09:13;;;;;;;11.40;1.42;;;;;;;2.38;100.00;102580.94;5071708;28;20036;-48
2023/03/28 02:11:39;;;;;;;9.93;1.85;;;;;;;2.40;100.00;102574.59;5071600;28;20550;-48
2023/03/28 02:14:12;;;;;;;7.93;1.10;;;;;;;2.37;100.00;102580.09;5068126;28;20032;-47
2023/03/28 02:16:40;;;;;;;6.35;1.40;;;;;;;2.34;100.00;102571.41;5061977;28;20434;-48
2023/03/28 02:19:07;;;;;;;7.20;1.35;;;;;;;2.29;100.00;102563.72;5071900;28;20028;-48
2023/03/28 02:21:53;;;;;;;7.95;1.27;;;;;;;2.24;100.00;102565.78;5079324;28;20131;-48
2023/03/28 02:24:19;;;;;;;4.72;1.00;;;;;;;2.24;100.00;102565.78;5070499;28;20181;-47
2023/03/28 02:26:45;;;;;;;8.57;1.08;;;;;;;2.23;100.00;102561.38;5070542;28;20028;-47
2023/03/28 02:29:11;;;;;;;3.88;1.42;;;;;;;2.20;100.00;102561.56;5088117;28;20027;-48
2023/03/28 02:31:37;;;;;;;6.50;1.10;;;;;;;2.14;100.00;102557.47;5072821;28;20039;-49
2023/03/28 02:34:02;;;;;;;8.45;1.20;;;;;;;1.98;100.00;102552.13;5073297;28;20071;-46
2023/03/28 02:36:36;;;;;;;4.90;1.30;;;;;;;1.84;100.00;102549.34;5072381;28;20479;-46
2023/03/28 02:39:53;;;;;;;5.45;1.13;;;;;;;1.82;100.00;102551.25;5072793;28;20021;-47
2023/03/28 02:42:24;;;;;;;13.95;1.92;;;;;;;1.80;100.00;102558.44;5026179;28;20056;-47
2023/03/28 02:44:50;;;;;;;4.93;0.90;;;;;;;1.75;100.00;102549.88;5052215;28;20021;-48
2023/03/28 02:47:30;;;;;;;4.78;1.35;;;;;;;1.78;100.00;102559.47;5052773;28;20377;-47
2023/03/28 02:49:58;;;;;;;4.40;1.17;;;;;;;1.76;100.00;102556.88;5073491;28;20032;-49
2023/03/28 02:53:05;;;;;;;6.80;1.65;;;;;;;1.71;100.00;102558.94;5091231;28;20122;-47
2023/03/28 02:55:53;;;;;;;4.57;1.30;;;;;;;1.68;100.00;102559.09;5071840;28;20040;-49
2023/03/28 02:58:28;;;;;;;9.68;1.50;;;;;;;1.64;100.00;102550.44;5071190;28;20039;-47
2023/03/28 03:00:53;;;;;;;11.85;1.38;;;;;;;1.62;100.00;102554.13;5080915;28;20020;-49
2023/03/28 03:03:20;;;;;;;11.70;1.38;;;;;;;1.57;100.00;102550.84;5092540;28;20476;-47
2023/03/28 03:05:46;;;;;;;12.63;1.58;;;;;;;1.54;100.00;102552.72;5092637;28;20031;-49
2023/03/28 03:08:12;;;;;;;8.63;1.88;;;;;;;1.53;100.00;102553.69;5092353;28;20212;-48
2023/03/28 03:10:38;;;;;;;10.63;1.77;;;;;;;1.53;100.00;102561.63;5083864;28;20070;-48
2023/03/28 03:13:03;;;;;;;7.43;1.35;;;;;;;1.54;100.00;102552.72;5091655;28;20444;-48
2023/03/28 03:15:29;;;;;;;6.45;1.58;;;;;;;1.57;100.00;102556.16;5091280;28;20068;-49
2023/03/28 03:17:57;;;;;;;7.00;1.40;;;;;;;1.55;100.00;102548.28;5091310;28;20134;-47
2023/03/28 03:20:26;;;;;;;6.93;1.67;;;;;;;1.55;100.00;102550.91;5088948;28;20036;-48
2023/03/28 03:22:53;;;;;;;9.57;1.42;;;;;;;1.50;100.00;102539.69;5072300;28;20028;-49
2023/03/28 03:25:19;;;;;;;8.43;1.92;;;;;;;1.43;100.00;102546.28;5073106;28;20152;-51
2023/03/28 03:27:44;;;;;;;11.30;1.45;;;;;;;1.43;100.00;102539.19;5079501;28;20095;-47
2023/03/28 03:30:10;;;;;;;13.18;2.55;;;;;;;1.41;100.00;102546.34;5072291;28;20020;-48
2023/03/28 03:32:37;;;;;;;4.80;1.33;;;;;;;1.38;100.00;102537.72;5071049;28;20028;-48
2023/03/28 03:35:04;;;;;;;7.75;1.50;;;;;;;1.38;100.00;102538.56;5076377;28;20028;-47
2023/03/28 03:37:29;;;;;;;8.57;1.70;;;;;;;1.39;100.00;102532.31;5070542;28;20039;-47
2023/03/28 03:39:55;;;;;;;6.95;1.63;;;;;;;1.38;100.00;102535.91;5076973;28;20036;-49
2023/03/28 03:42:20;;;;;;;8.30;1.15;;;;;;;1.35;100.00;102530.78;5091052;28;20059;-49
2023/03/28 03:44:45;;;;;;;11.45;1.98;;;;;;;1.35;100.00;102525.47;5088318;28;20123;-48
2023/03/28 03:47:12;;;;;;;5.10;2.30;;;;;;;1.33;100.00;102523.81;5091535;28;20051;-49
2023/03/28 03:49:37;;;;;;;10.77;1.75;;;;;;;1.36;100.00;102526.31;5091996;28;20024;-48
2023/03/28 03:52:03;;;;;;;16.25;2.00;;;;;;;1.35;100.00;102524.63;5075658;28;20044;-49
2023/03/28 03:54:28;;;;;;;9.13;1.92;;;;;;;1.35;100.00;102532.56;5071814;28;20039;-47
2023/03/28 03:56:53;;;;;;;8.35;1.77;;;;;;;1.36;100.00;102531.63;5085545;28;20024;-48
2023/03/28 03:59:19;;;;;;;7.93;2.00;;;;;;;1.39;100.00;102531.44;5091606;28;20113;-48
2023/03/28 04:01:45;;;;;;;9.70;2.38;;;;;;;1.38;100.00;102540.34;5076945;28;20074;-47
2023/03/28 04:04:10;;;;;;;3.05;1.52;;;;;;;1.31;100.00;102539.81;5071576;28;20074;-47
2023/03/28 04:06:37;;;;;;;9.07;1.80;;;;;;;1.28;100.00;102535.53;5071387;28;20439;-47
2023/03/28 04:09:04;;;;;;;6.10;1.65;;;;;;;1.26;100.00;102536.53;5071432;28;20029;-51
2023/03/28 04:11:29;;;;;;;5.90;2.25;;;;;;;1.23;100.00;102520.78;5082601;28;20336;-49
2023/03/28 04:13:54;;;;;;;15.07;2.78;;;;;;;1.21;100.00;102530.63;5079809;28;20029;-48
2023/03/28 04:16:20;;;;;;;10.63;2.55;;;;;;;1.25;100.00;102529.53;5048875;28;20024;-50
2023/03/28 04:18:49;;;;;;;16.15;2.80;;;;;;;1.27;100.00;102527.66;5061169;28;20680;-47
2023/03/28 04:21:16;;;;;;;15.63;2.22;;;;;;;1.30;100.00;102538.09;5077723;28;20024;-48
2023/03/28 04:23:47;;;;;;;12.30;2.67;;;;;;;1.28;100.00;102532.88;5087759;28;20042;-49
2023/03/28 04:26:14;;;;;;;13.40;2.80;;;;;;;1.25;100.00;102529.53;5079151;28;20191;-46
2023/03/28 04:28:40;;;;;;;11.25;2.85;;;;;;;1.24;100.00;102522.53;5068789;28;20404;-48
2023/03/28 04:31:06;;;;;;;12.40;2.60;;;;;;;1.24;100.00;102527.84;5074459;28;20043;-51
2023/03/28 04:33:32;;;;;;;11.23;2.55;;;;;;;1.24;100.00;102530.47;5088842;28;20492;-48
2023/03/28 04:36:00;;;;;;;7.45;1.85;;;;;;;1.24;100.00;102528.69;5075012;28;20024;-49
2023/03/28 04:38:27;;;;;;;11.05;2.75;;;;;;;1.28;100.00;102524.91;5068434;28;20032;-48
2023/03/28 04:40:56;;;;;;;12.35;2.40;;;;;;;1.35;100.00;102533.41;5063816;28;20484;-51
2023/03/28 04:43:25;;;;;;;11.15;2.20;;;;;;;1.48;100.00;102523.88;5065016;28;20463;-48
2023/03/28 04:45:52;;;;;;;13.23;2.60;;;;;;;1.54;100.00;102522.69;5066778;28;20020;-49
2023/03/28 04:48:17;;;;;;;11.25;2.83;;;;;;;1.58;100.00;102523.38;5067389;28;20480;-46
2023/03/28 04:50:42;;;;;;;16.40;2.50;;;;;;;1.64;100.00;102528.38;5080656;28;20042;-49
2023/03/28 04:53:08;;;;;;;10.13;2.53;;;;;;;1.67;100.00;102530.84;5071145;28;20328;-49
2023/03/28 04:55:33;;;;;;;17.15;2.72;;;;;;;1.67;100.00;102525.53;5068440;28;20032;-49
2023/03/28 04:57:59;;;;;;;10.60;2.40;;;;;;;1.71;100.00;102522.66;5068135;28;20125;-47
2023/03/28 05:00:24;;;;;;;14.80;2.78;;;;;;;1.70;100.00;102520.91;5083233;28;20043;-49
2023/03/28 05:02:54;;;;;;;12.60;2.67;;;;;;;1.74;100.00;102524.28;5071580;28;20039;-47
2023/03/28 05:05:20;;;;;;;6.80;2.10;;;;;;;1.78;100.00;102517.84;5065531;28;20088;-48
2023/03/28 05:07:45;;;;;;;15.38;2.90;;;;;;;1.84;100.00;102530.78;5071077;28;20451;-50
2023/03/28 05:10:11;;;;;;;11.43;2.80;;;;;;;1.92;100.00;102525.94;5069842;28;20095;-48
2023/03/28 05:12:36;;;;;;;13.60;2.95;;;;;;;1.96;100.00;102523.94;5081508;28;20484;-48
2023/03/28 05:15:02;;;;;;;15.07;2.70;;;;;;;1.99;100.00;102523.78;5069191;28;20029;-48
2023/03/28 05:17:28;;;;;;;9.82;2.00;;;;;;;2.02;100.00;102530.72;5067903;28;20111;-51
2023/03/28 05:19:53;;;;;;;16.85;2.67;;;;;;;2.05;100.00;102523.44;5068789;28;20151;-48
2023/03/28 05:22:18;;;;;;;27.00;2.45;;;;;;;2.10;100.00;102539.97;5069725;28;20055;-48
2023/03/28 05:24:44;;;;;;;12.88;2.33;;;;;;;2.13;100.00;102538.94;5069675;28;20498;-50
2023/03/28 05:27:09;;;;;;;16.60;3.22;;;;;;;2.15;100.00;102537.06;5080930;28;20035;-50
2023/03/28 05:29:34;;;;;;;8.60;2.72;;;;;;;2.23;100.00;102540.13;5069137;28;20048;-48
2023/03/28 05:32:00;;;;;;;18.95;3.47;;;;;;;2.29;100.00;102537.16;5068514;28;20017;-48
2023/03/28 05:34:27;;;;;;;18.00;3.00;;;;;;;2.32;100.00;102544.94;5075643;28;20056;-48
2023/03/28 05:36:52;;;;;;;23.05;2.88;;;;;;;2.38;100.00;102544.59;5086646;28;20475;-49
2023/03/28 05:39:18;;;;;;;6.72;2.35;;;;;;;2.46;100.00;102543.31;5080558;28;20032;-47
2023/03/28 05:41:43;;;;;;;11.50;3.08;;;;;;;2.52;100.00;102542.94;5088620;28;20104;-49
2023/03/28 05:44:08;;;;;;;20.63;3.28;;;;;;;2.58;100.00;102543.47;5072877;28;20086;-50
2023/03/28 05:46:34;;;;;;;20.05;3.55;;;;;;;2.60;100.00;102544.22;5073592;28;20016;-49
2023/03/28 05:48:59;;;;;;;15.57;3.42;;;;;;;2.67;100.00;102542.06;5073951;28;20070;-47
2023/03/28 05:51:25;;;;;;;17.38;2.90;;;;;;;2.69;100.00;102540.19;5073603;28;20086;-51
2023/03/28 05:53:50;;;;;;;21.35;3.67;;;;;;;2.73;100.00;102539.06;5078879;28;20369;-52
2023/03/28 05:56:15;;;;;;;18.33;3.40;;;;;;;2.75;100.00;102541.63;5073956;28;20033;-49
2023/03/28 05:58:41;;;;;;;15.25;4.03;;;;;;;2.82;100.00;102533.22;5071819;28;20110;-47
2023/03/28 06:01:06;;;;;;;19.27;3.50;;;;;;;2.90;100.00;102540.75;5074872;28;20368;-47
2023/03/28 06:03:32;;;;;;;21.42;3.38;;;;;;;2.96;100.00;102539.53;5074605;28;20047;-49
2023/03/28 06:05:58;;;;;;;13.98;3.00;;;;;;;3.02;100.00;102537.34;5071206;28;20036;-49
2023/03/28 06:08:24;;;;;;;10.45;3.33;;;;;;;3.14;100.00;102527.78;5075913;28;20032;-52
2023/03/28 06:10:49;;;;;;;14.02;2.83;;;;;;;3.27;100.00;102541.22;5077913;28;20031;-51
2023/03/28 06:13:14;;;;;;;13.85;2.83;;;;;;;3.35;100.00;102536.28;5087169;28;20060;-51
2023/03/28 06:15:40;;;;;;;19.45;4.57;;;;;;;3.45;100.00;102544.53;5072557;28;20034;-50
2023/03/28 06:18:05;;;;;;;11.80;2.85;;;;;;;3.46;100.00;102538.28;5071902;28;20024;-50
2023/03/28 06:20:31;;;;;;;16.83;3.75;;;;;;;3.44;100.00;102540.16;5074265;28;20020;-48
2023/03/28 06:22:56;;;;;;;18.77;3.47;;;;;;;3.43;100.00;102538.47;5073325;28;20112;-48
2023/03/28 06:25:21;;;;;;;21.17;3.17;;;;;;;3.52;100.00;102536.06;5088228;28;20095;-49
2023/03/28 06:27:47;;;;;;;14.95;3.03;;;;;;;3.56;100.00;102534.09;5092987;28;20032;-48
2023/03/28 06:30:13;;;;;;;23.40;4.00;;;;;;;3.67;100.00;102536.94;5085085;28;20120;-50
2023/03/28 06:32:38;;;;;;;12.90;3.05;;;;;;;3.77;100.00;102523.91;5090366;28;20121;-48
2023/03/28 06:35:04;;;;;;;19.17;3.63;;;;;;;3.79;100.00;102529.13;5076310;28;20032;-49
2023/03/28 06:37:29;;;;;;;30.40;3.20;;;;;;;3.95;100.00;102521.91;5071731;28;20531;-49
2023/03/28 06:39:54;;;;;;;14.27;2.70;;;;;;;4.06;100.00;102516.75;5072815;28;20020;-50
2023/03/28 06:42:20;;;;;;;14.57;2.83;;;;;;;4.32;100.00;102523.06;5072671;28;20044;-50
2023/03/28 06:44:45;;;;;;;11.95;2.70;;;;;;;4.46;100.00;102516.81;5072076;28;20467;-49
2023/03/28 06:47:11;;;;;;;24.70;3.38;;;;;;;4.58;100.00;102515.13;5071214;28;20388;-51
2023/03/28 06:49:36;;;;;;;7.03;2.67;;;;;;;5.17;100.00;102520.94;5092410;28;20071;-49
2023/03/28 06:52:01;;;;;;;16.85;3.33;;;;;;;5.26;100.00;102517.59;5092341;28;20031;-49
2023/03/28 06:54:27;;;;;;;19.20;2.67;;;;;;;5.40;100.00;102523.84;5092682;28;20554;-50
2023/03/28 06:56:52;;;;;;;21.50;2.72;;;;;;;5.30;100.00;102514.75;5092630;28;20039;-47
2023/03/28 06:59:17;;;;;;;21.08;3.53;;;;;;;5.39;100.00;102517.59;5092482;28;20039;-52
2023/03/28 07:01:43;;;;;;;14.57;2.58;;;;;;;5.65;100.00;102514.94;5088481;28;20306;-49
2023/03/28 07:04:08;;;;;;;18.98;4.25;;;;;;;5.82;100.00;102519.94;5087375;28;20020;-49
2023/03/28 07:06:34;;;;;;;24.40;3.42;;;;;;;5.53;100.00;102515.78;5092430;28;20028;-47
2023/03/28 07:09:00;;;;;;;15.75;3.08;;;;;;;5.57;100.00;102511.94;5092392;28;20080;-51
2023/03/28 07:11:25;;;;;;;21.63;3.72;;;;;;;5.39;100.00;102514.09;5092335;28;20071;-49
2023/03/28 07:13:50;;;;;;;15.70;2.95;;;;;;;5.64;100.00;102518.56;5092166;28;20024;-49
2023/03/28 07:16:16;;;;;;;20.55;3.60;;;;;;;6.08;100.00;102519.88;5091339;28;20024;-46
2023/03/28 07:18:42;;;;;;;17.77;3.10;;;;;;;6.01;100.00;102522.16;5092464;28;20081;-48
2023/03/28 07:21:12;;;;;;;21.75;3.63;;;;;;;6.21;100.00;102520.69;5092040;28;20023;-50
2023/03/28 07:23:38;;;;;;;28.95;4.68;;;;;;;6.60;100.00;102516.06;5092155;28;20501;-51
2023/03/28 07:26:06;;;;;;;17.77;3.53;;;;;;;6.64;100.00;102514.88;5092218;28;20036;-48
2023/03/28 07:28:31;;;;;;;20.60;3.67;;;;;;;6.52;100.00;102515.78;5092163;28;20068;-49
2023/03/28 07:30:59;;;;;;;13.55;4.07;;;;;;;7.00;100.00;102521.94;5092138;28;20417;-47
2023/03/28 07:33:24;;;;;;;12.82;3.33;;;;;;;7.33;100.00;102511.41;5090711;28;20024;-49
2023/03/28 07:35:49;;;;;;;21.90;4.63;;;;;;;7.09;100.00;102506.97;5091661;28;20103;-48
2023/03/28 07:38:15;;;;;;;14.02;3.50;;;;;;;6.89;100.00;102513.84;5092034;28;20051;-48
2023/03/28 07:40:41;;;;;;;15.40;3.88;;;;;;;6.58;100.00;102504.59;5090366;28;20144;-49
2023/03/28 07:43:06;;;;;;;20.58;3.75;;;;;;;6.27;100.00;102501.56;5092089;28;20380;-48
2023/03/28 07:45:31;;;;;;;27.13;3.92;;;;;;;6.01;100.00;102507.97;5090652;28;20060;-48
2023/03/28 07:47:57;;;;;;;17.27;3.13;;;;;;;5.81;100.00;102504.00;5072876;28;20052;-49
2023/03/28 07:50:22;;;;;;;16.83;3.72;;;;;;;5.66;100.00;102497.94;5051395;28;20066;-50
2023/03/28 07:52:48;;;;;;;14.20;2.80;;;;;;;5.86;100.00;102494.69;5051237;28;20105;-46
2023/03/28 07:55:13;;;;;;;16.40;2.63;;;;;;;5.84;100.00;102501.09;5049628;28;20039;-47
2023/03/28 07:57:39;;;;;;;17.77;3.25;;;;;;;5.79;100.00;102503.25;5051467;28;20029;-50
2023/03/28 08:00:12;;;;;;;12.05;2.72;;;;;;;6.10;100.00;102496.59;5051312;28;20181;-49
2023/03/28 08:02:41;;;;;;;18.98;3.28;;;;;;;6.04;98.91;102505.06;5051189;28;20037;-48
2023/03/28 08:05:06;;;;;;;13.77;2.63;;;;;;;5.98;99.30;102508.16;5050887;28;20472;-48
2023/03/28 08:07:33;;;;;;;18.38;3.45;;;;;;;5.98;97.50;102501.00;5051141;28;20044;-49
2023/03/28 08:09:59;;;;;;;12.38;2.95;;;;;;;6.01;97.87;102507.97;5051234;28;20449;-50
2023/03/28 08:12:24;;;;;;;11.05;3.35;;;;;;;6.26;96.51;102507.84;5051029;28;20033;-48
2023/03/28 08:14:50;;;;;;;16.63;3.42;;;;;;;6.38;96.06;102506.97;5051124;28;20112;-48
2023/03/28 08:17:15;;;;;;;17.45;3.47;;;;;;;6.23;97.03;102502.72;5077463;28;20048;-49
2023/03/28 08:19:40;;;;;;;13.73;3.63;;;;;;;6.14;96.78;102500.75;5090878;28;20085;-50
2023/03/28 08:22:06;;;;;;;17.77;3.47;;;;;;;6.05;98.50;102496.91;5089456;28;20407;-50
2023/03/28 08:24:32;;;;;;;18.95;3.42;;;;;;;6.13;100.00;102504.38;5091291;28;20220;-47
2023/03/28 08:26:57;;;;;;;14.93;3.70;;;;;;;6.23;100.00;102504.56;5091161;28;20038;-50
2023/03/28 08:29:23;;;;;;;11.07;3.30;;;;;;;6.68;100.00;102504.78;5091307;28;20021;-49
2023/03/28 08:31:48;;;;;;;16.67;3.95;;;;;;;6.77;97.54;102504.94;5090717;28;20077;-48
2023/03/28 08:34:14;;;;;;;10.23;3.35;;;;;;;6.96;95.71;102503.53;5089382;28;20020;-49
2023/03/28 08:36:40;;;;;;;15.32;3.35;;;;;;;6.88;95.76;102500.59;5079537;28;20064;-50
2023/03/28 08:39:06;;;;;;;8.73;3.05;;;;;;;6.93;92.30;102504.63;5050346;28;20393;-49
2023/03/28 08:41:53;;;;;;;17.67;3.90;;;;;;;7.04;90.47;102499.28;5050266;28;20024;-49
2023/03/28 08:44:34;;;;;;;6.28;2.40;;;;;;;6.90;90.83;102501.31;5050336;28;20443;-49
2023/03/28 08:47:14;;;;;;;17.00;3.20;;;;;;;6.87;87.41;102509.59;5065557;28;20083;-51
2023/03/28 08:49:45;;;;;;;21.98;4.13;;;;;;;6.75;86.38;102500.69;5065605;28;20048;-49
2023/03/28 08:52:13;;;;;;;12.07;2.95;;;;;;;6.60;86.12;102503.53;5065730;28;20036;-49
2023/03/28 08:55:00;;;;;;;16.52;3.63;;;;;;;6.67;88.58;102503.94;5048870;28;20487;-51
2023/03/28 08:57:28;;;;;;;10.10;3.35;;;;;;;6.58;88.75;102501.94;5050347;28;20358;-49
2023/03/28 09:00:15;;;;;;;8.75;2.90;;;;;;;6.85;89.29;102503.53;5050317;28;20029;-50
2023/03/28 09:02:41;;;;;;;14.35;3.38;;;;;;;7.04;84.10;102501.13;5049153;28;20037;-49
2023/03/28 09:05:15;;;;;;;16.92;4.22;;;;;;;6.86;81.05;102500.72;5068887;28;20029;-48
2023/03/28 09:07:59;;;;;;;10.02;3.47;;;;;;;6.69;80.25;102493.97;5069768;28;20400;-49
2023/03/28 09:10:41;;;;;;;10.07;4.25;;;;;;;6.82;81.13;102481.38;5068825;28;20032;-50
2023/03/28 09:13:13;;;;;;;10.77;3.17;;;;;;;6.49;77.86;102491.94;5068734;28;20489;-51
2023/03/28 09:16:01;;;;;;;8.75;2.95;;;;;;;6.75;76.66;102480.13;5070360;28;20060;-49
2023/03/28 09:19:04;;;;;;;12.30;3.33;;;;;;;6.89;76.31;102478.22;5070137;28;20400;-50
2023/03/28 09:21:37;;;;;;;12.10;3.80;;;;;;;6.72;75.50;102468.81;5069652;28;20036;-50
2023/03/28 09:24:27;;;;;;;11.50;3.25;;;;;;;6.92;74.69;102459.22;5068433;28;20032;-49
2023/03/28 09:27:05;;;;;;;14.10;3.65;;;;;;;7.08;75.21;102461.56;5069848;28;20108;-51
2023/03/28 09:29:33;;;;;;;12.57;3.20;;;;;;;7.48;77.02;102462.84;5068714;28;20028;-47
2023/03/28 09:32:02;;;;;;;7.90;3.20;;;;;;;7.07;76.44;102452.69;5068490;28;20395;-48
2023/03/28 09:34:35;;;;;;;6.72;2.50;;;;;;;7.11;73.55;102459.53;5068562;28;20453;-50
2023/03/28 09:37:40;;;;;;;9.32;2.55;;;;;;;7.09;73.79;102456.13;5068182;28;20032;-47
2023/03/28 09:40:25;;;;;;;6.07;2.40;;;;;;;6.98;72.86;102450.75;5063235;28;20071;-48
2023/03/28 09:43:32;;;;;;;9.88;2.58;;;;;;;6.55;71.63;102448.66;5069151;28;20027;-48
2023/03/28 09:46:10;;;;;;;5.47;2.30;;;;;;;6.79;71.72;102445.94;5069371;28;20045;-49
2023/03/28 09:48:35;;;;;;;;;;;;;;;6.86;71.55;102436.47;5068581;28;20054;-47
2023/03/28 09:51:02;;;;;;;4.30;2.30;;;;;;;6.84;70.09;102441.09;5069588;28;19916;-48
2023/03/28 09:53:34;;;;;;;6.07;2.20;;;;;;;7.02;69.04;102433.47;5069644;28;20047;-48
2023/03/28 09:56:29;;;;;;;8.02;2.70;;;;;;;6.67;64.75;102442.41;5068144;28;20031;-48
2023/03/28 09:59:01;;;;;;;6.15;2.40;;;;;;;6.41;64.71;102443.53;5068070;28;20308;-50
2023/03/28 10:01:46;;;;;;;6.82;2.60;;;;;;;6.41;66.61;102430.16;5069572;28;20388;-51
2023/03/28 10:04:17;;;;;;;10.18;2.20;;;;;;;6.43;67.79;102430.91;5068299;28;20032;-47
2023/03/28 10:06:44;;;;;;;10.45;2.45;;;;;;;6.25;68.25;102431.28;5069311;28;20060;-49
2023/03/28 10:09:12;;;;;;;7.43;2.03;;;;;;;6.26;69.10;102424.13;5067630;28;20024;-47
2023/03/28 10:12:08;;;;;;;5.97;2.15;;;;;;;6.36;69.14;102431.34;5069426;28;20330;-50
2023/03/28 10:14:35;;;;;;;4.03;2.08;;;;;;;6.65;67.82;102428.28;5068248;28;20131;-47
2023/03/28 10:17:04;;;;;;;7.95;2.53;;;;;;;6.88;67.04;102410.44;5069483;28;20025;-48
2023/03/28 10:19:36;;;;;;;6.53;2.22;;;;;;;6.66;66.44;102399.69;5070632;28;20055;-48
2023/03/28 10:22:11;;;;;;;11.93;2.22;;;;;;;6.99;66.56;102397.06;5071718;28;20020;-48
2023/03/28 10:24:38;;;;;;;7.60;2.10;;;;;;;7.38;62.94;102386.00;5072690;28;20025;-47
2023/03/28 10:27:11;;;;;;;6.32;2.30;;;;;;;7.73;61.41;102384.97;5073136;28;20464;-48
2023/03/28 10:29:37;;;;;;;6.72;1.80;;;;;;;7.66;60.80;102379.25;5071711;28;20028;-47
2023/03/28 10:32:02;;;;;;;9.82;2.10;;;;;;;7.33;60.13;102372.13;5071746;28;20457;-48
2023/03/28 10:34:30;;;;;;;7.05;2.05;;;;;;;7.51;61.68;102386.72;5054918;28;20460;-48
2023/03/28 10:36:55;;;;;;;4.60;1.92;;;;;;;7.61;61.49;102376.97;5073103;28;20028;-49
2023/03/28 10:39:29;;;;;;;8.38;2.50;;;;;;;7.35;61.66;102365.69;5072742;28;20021;-47
2023/03/28 10:41:56;;;;;;;11.30;2.42;;;;;;;7.44;62.10;102382.84;5072469;28;20384;-48
2023/03/28 10:44:35;;;;;;;8.25;2.40;;;;;;;7.43;62.72;102363.22;5073035;28;20077;-48
2023/03/28 10:47:12;;;;;;;6.25;2.05;;;;;;;7.69;61.87;102355.75;5072986;28;20056;-48
2023/03/28 10:49:45;;;;;;;6.28;1.75;;;;;;;7.67;59.50;102368.41;5073429;28;20021;-48
2023/03/28 10:52:21;;;;;;;7.10;1.85;;;;;;;7.61;59.49;102365.38;5071395;28;20035;-47
2023/03/28 10:55:12;;;;;;;9.25;2.17;;;;;;;7.93;60.74;102349.34;5071375;28;20069;-47
2023/03/28 10:57:47;;;;;;;6.93;2.22;;;;;;;7.79;59.45;102377.25;5071513;28;20025;-46
2023/03/28 11:00:18;;;;;;;7.72;2.30;;;;;;;7.35;59.18;102380.91;5072382;28;20055;-48
2023/03/28 11:03:05;;;;;;;10.70;2.70;;;;;;;7.30;62.06;102367.03;5072298;28;20364;-48
2023/03/28 11:05:37;;;;;;;8.05;2.72;;;;;;;7.24;63.05;102353.16;5072864;28;20360;-48
2023/03/28 11:08:21;;;;;;;7.35;2.40;;;;;;;7.24;63.26;102349.59;5072589;28;20079;-48
2023/03/28 11:11:06;;;;;;;11.48;3.63;;;;;;;7.07;64.24;102350.13;5072774;28;20029;-49
2023/03/28 11:13:34;;;;;;;10.35;3.03;;;;;;;7.03;66.21;102350.38;5050817;28;20036;-48
2023/03/28 11:16:13;;;;;;;9.35;3.00;;;;;;;6.95;67.65;102335.88;5072041;28;20029;-47
2023/03/28 11:18:46;;;;;;;7.63;3.65;;;;;;;6.91;68.62;102340.63;5071916;28;20036;-48
2023/03/28 11:21:48;;;;;;;12.27;3.65;;;;;;;6.74;70.21;102325.03;5072142;28;20024;-48
2023/03/28 11:24:32;;;;;;;13.48;3.53;;;;;;;6.73;71.43;102326.00;5072069;28;20035;-48
2023/03/28 11:27:03;;;;;;;9.70;3.80;;;;;;;6.76;73.58;102313.22;5070457;28;20445;-48
2023/03/28 11:29:45;;;;;;;11.60;3.63;;;;;;;6.71;74.18;102311.91;5070545;28;20056;-46
2023/03/28 11:32:16;;;;;;;10.02;3.50;;;;;;;6.86;73.89;102305.34;5070172;28;20116;-49
2023/03/28 11:35:14;;;;;;;15.75;4.35;;;;;;;7.29;72.70;102285.81;5071379;28;20028;-48
2023/03/28 11:38:03;;;;;;;13.52;3.90;;;;;;;7.10;73.03;102281.09;5045754;28;20056;-49
2023/03/28 11:40:45;;;;;;;15.10;3.83;;;;;;;7.55;71.89;102281.00;5071629;28;20032;-48